createdAt,value
2018-06-17T00:00:24.494Z,22.78
2018-06-17T00:02:52.825Z,22.80
2018-06-17T00:05:21.277Z,22.75
2018-06-17T00:07:49.632Z,22.66
2018-06-17T00:10:17.932Z,22.60
2018-06-17T00:12:46.258Z,22.50
2018-06-17T00:15:15.545Z,22.44
2018-06-17T00:20:34.071Z,22.46
2018-06-17T00:23:03.408Z,22.38
2018-06-17T00:25:31.962Z,22.37
2018-06-17T00:28:00.470Z,22.33
2018-06-17T00:30:28.938Z,22.28
2018-06-17T00:32:57.287Z,22.22
2018-06-17T00:35:25.646Z,22.16
2018-06-17T00:37:53.982Z,22.11
2018-06-17T00:40:22.653Z,21.96
2018-06-17T00:42:51.034Z,22.11
2018-06-17T00:45:19.417Z,22.20
2018-06-17T00:47:47.753Z,22.31
2018-06-17T00:50:16.250Z,22.25
2018-06-17T00:52:44.567Z,22.06
2018-06-17T00:55:13.064Z,22.12
2018-06-17T00:57:46.173Z,22.00
2018-06-17T01:00:14.850Z,22.00
2018-06-17T01:02:43.252Z,21.99
2018-06-17T01:05:11.574Z,21.99
2018-06-17T01:07:39.910Z,22.10
2018-06-17T01:10:08.266Z,22.09
2018-06-17T01:12:37.959Z,21.99
2018-06-17T01:15:06.613Z,22.01
2018-06-17T01:17:34.932Z,21.86
2018-06-17T01:20:03.661Z,21.98
2018-06-17T01:22:31.977Z,22.08
2018-06-17T01:25:00.355Z,21.99
2018-06-17T01:27:28.683Z,22.03
2018-06-17T01:29:57.105Z,22.09
2018-06-17T01:32:25.654Z,22.14
2018-06-17T01:34:53.978Z,22.04
2018-06-17T01:37:22.323Z,22.00
2018-06-17T01:39:50.678Z,22.02
2018-06-17T01:42:19.153Z,21.96
2018-06-17T01:44:47.490Z,21.99
2018-06-17T01:47:15.831Z,21.92
2018-06-17T01:49:44.144Z,21.92
2018-06-17T01:52:12.531Z,21.80
2018-06-17T01:54:40.973Z,21.80
2018-06-17T01:57:09.422Z,21.63
2018-06-17T01:59:38.012Z,21.73
2018-06-17T02:02:06.491Z,21.75
2018-06-17T02:04:40.378Z,21.66
2018-06-17T02:07:14.138Z,21.66
2018-06-17T02:11:54.954Z,21.68
2018-06-17T02:14:28.429Z,21.43
2018-06-17T02:16:56.762Z,21.59
2018-06-17T02:19:25.172Z,21.59
2018-06-17T02:21:53.994Z,21.60
2018-06-17T02:24:22.333Z,21.55
2018-06-17T02:26:50.677Z,21.62
2018-06-17T02:29:19.084Z,21.64
2018-06-17T02:31:47.442Z,21.56
2018-06-17T02:34:15.758Z,21.58
2018-06-17T02:36:44.107Z,21.55
2018-06-17T02:39:12.441Z,21.41
2018-06-17T02:41:40.820Z,21.29
2018-06-17T02:44:09.243Z,21.28
2018-06-17T02:46:42.888Z,21.29
2018-06-17T02:49:16.961Z,21.17
2018-06-17T02:51:50.775Z,21.17
2018-06-17T02:54:51.367Z,21.27
2018-06-17T02:57:20.393Z,21.21
2018-06-17T02:59:48.942Z,21.29
2018-06-17T03:02:17.742Z,21.30
2018-06-17T03:04:46.170Z,21.28
2018-06-17T03:07:14.582Z,21.30
2018-06-17T03:09:43.232Z,21.32
2018-06-17T03:12:11.666Z,21.34
2018-06-17T03:14:40.161Z,21.23
2018-06-17T03:17:08.568Z,21.30
2018-06-17T03:19:37.851Z,21.30
2018-06-17T03:22:07.317Z,21.25
2018-06-17T03:24:41.774Z,21.24
2018-06-17T03:27:16.528Z,21.18
2018-06-17T03:29:50.328Z,21.18
2018-06-17T03:32:24.299Z,21.09
2018-06-17T03:34:58.077Z,21.03
2018-06-17T03:37:26.503Z,21.06
2018-06-17T03:39:55.353Z,21.00
2018-06-17T03:42:23.711Z,20.89
2018-06-17T03:44:52.111Z,20.95
2018-06-17T03:47:20.694Z,20.99
2018-06-17T03:49:49.957Z,21.04
2018-06-17T03:52:18.583Z,21.14
2018-06-17T03:54:47.412Z,21.17
2018-06-17T03:57:15.803Z,21.15
2018-06-17T03:59:44.212Z,21.33
2018-06-17T04:02:12.599Z,21.40
2018-06-17T04:04:46.799Z,21.50
2018-06-17T04:07:15.226Z,21.51
2018-06-17T04:09:43.650Z,21.58
2018-06-17T04:12:12.049Z,21.50
2018-06-17T04:14:40.813Z,21.43
2018-06-17T04:17:13.196Z,21.53
2018-06-17T04:19:42.707Z,21.67
2018-06-17T04:22:11.427Z,21.77
2018-06-17T04:24:41.119Z,21.90
2018-06-17T04:27:09.809Z,21.99
2018-06-17T04:29:38.226Z,22.16
2018-06-17T04:32:06.711Z,22.28
2018-06-17T04:34:35.129Z,22.39
2018-06-17T04:37:03.565Z,22.54
2018-06-17T04:39:32.250Z,22.63
2018-06-17T04:42:00.648Z,22.59
2018-06-17T04:44:29.109Z,22.68
2018-06-17T04:46:57.962Z,22.83
2018-06-17T04:49:26.434Z,22.86
2018-06-17T04:51:56.705Z,22.98
2018-06-17T04:54:25.102Z,22.99
2018-06-17T04:56:53.622Z,23.09
2018-06-17T04:59:21.975Z,23.22
2018-06-17T05:01:50.475Z,23.25
2018-06-17T05:04:18.973Z,23.13
2018-06-17T05:06:47.437Z,23.03
2018-06-17T05:09:15.819Z,23.02
2018-06-17T05:11:44.295Z,23.24
2018-06-17T05:14:12.706Z,23.48
2018-06-17T05:16:41.163Z,23.79
2018-06-17T05:19:12.068Z,24.02
2018-06-17T05:21:41.671Z,24.26
2018-06-17T05:24:10.069Z,24.49
2018-06-17T05:26:38.593Z,24.73
2018-06-17T05:29:07.717Z,24.91
2018-06-17T05:31:36.139Z,25.00
2018-06-17T05:34:04.573Z,25.23
2018-06-17T05:36:33.016Z,25.23
2018-06-17T05:39:02.377Z,25.48
2018-06-17T05:41:30.828Z,25.40
2018-06-17T05:43:59.456Z,25.51
2018-06-17T05:46:28.022Z,25.75
2018-06-17T05:48:56.409Z,25.99
2018-06-17T05:51:24.796Z,26.08
2018-06-17T05:53:53.207Z,26.29
2018-06-17T05:56:21.786Z,26.53
2018-06-17T05:58:50.245Z,26.56
2018-06-17T06:01:18.672Z,26.65
2018-06-17T06:03:48.304Z,26.78
2018-06-17T06:06:16.740Z,26.76
2018-06-17T06:08:45.137Z,26.95
2018-06-17T06:11:13.532Z,27.27
2018-06-17T06:13:41.969Z,27.19
2018-06-17T06:16:10.379Z,27.43
2018-06-17T06:18:39.684Z,27.51
2018-06-17T06:21:08.363Z,27.38
2018-06-17T06:23:36.863Z,27.39
2018-06-17T06:26:05.361Z,27.52
2018-06-17T06:28:33.914Z,27.70
2018-06-17T06:31:02.373Z,26.90
2018-06-17T06:33:30.916Z,26.34
2018-06-17T06:35:59.457Z,26.29
2018-06-17T06:38:28.027Z,25.91
2018-06-17T06:40:56.616Z,25.89
2018-06-17T06:43:24.997Z,25.67
2018-06-17T06:45:53.395Z,25.40
2018-06-17T06:48:21.855Z,25.14
2018-06-17T06:50:50.547Z,25.30
2018-06-17T06:53:19.176Z,25.02
2018-06-17T06:55:50.253Z,24.85
2018-06-17T06:58:21.175Z,25.02
2018-06-17T07:00:50.897Z,25.37
2018-06-17T07:03:30.603Z,25.74
2018-06-17T07:08:12.205Z,25.85
2018-06-17T07:10:41.129Z,26.36
2018-06-17T07:13:10.141Z,26.88
2018-06-17T07:15:50.117Z,26.58
2018-06-17T07:18:41.469Z,26.44
2018-06-17T07:21:11.517Z,26.21
2018-06-17T07:23:39.999Z,26.01
2018-06-17T07:26:33.508Z,25.99
2018-06-17T07:29:14.243Z,26.06
2018-06-17T07:31:42.709Z,26.04
2018-06-17T07:34:12.050Z,25.89
2018-06-17T07:36:40.744Z,25.82
2018-06-17T07:41:24.192Z,25.78
2018-06-17T07:43:53.793Z,25.73
2018-06-17T07:46:22.516Z,26.10
2018-06-17T07:49:27.693Z,26.28
2018-06-17T07:52:09.621Z,26.41
2018-06-17T07:54:39.289Z,26.58
2018-06-17T07:57:08.532Z,26.61
2018-06-17T07:59:37.963Z,26.28
2018-06-17T08:02:12.104Z,26.44
2018-06-17T08:04:55.276Z,26.47
2018-06-17T08:07:23.800Z,26.68
2018-06-17T08:09:52.274Z,26.54
2018-06-17T08:12:22.303Z,26.26
2018-06-17T08:14:50.761Z,26.15
2018-06-17T08:17:19.158Z,26.11
2018-06-17T08:19:47.559Z,26.13
2018-06-17T08:22:16.071Z,26.05
2018-06-17T08:24:44.501Z,26.13
2018-06-17T08:27:13.026Z,26.19
2018-06-17T08:29:41.503Z,26.26
2018-06-17T08:32:10.081Z,26.41
2018-06-17T08:34:38.565Z,26.47
2018-06-17T08:37:08.040Z,26.43
2018-06-17T08:39:36.523Z,26.37
2018-06-17T08:42:04.986Z,26.40
2018-06-17T08:44:33.460Z,26.38
2018-06-17T08:47:02.036Z,26.02
2018-06-17T08:49:30.505Z,25.93
2018-06-17T08:51:59.319Z,25.73
2018-06-17T08:54:27.919Z,25.68
2018-06-17T08:56:58.546Z,25.55
2018-06-17T08:59:29.206Z,25.63
2018-06-17T09:01:57.762Z,25.70
2018-06-17T09:04:26.328Z,25.77
2018-06-17T09:06:54.835Z,25.94
2018-06-17T09:09:23.338Z,26.21
2018-06-17T09:11:51.817Z,26.40
2018-06-17T09:14:20.489Z,26.60
2018-06-17T09:16:48.920Z,26.80
2018-06-17T09:19:17.468Z,27.03
2018-06-17T09:21:47.887Z,27.20
2018-06-17T09:24:18.074Z,27.42
2018-06-17T09:26:48.629Z,27.41
2018-06-17T09:29:19.771Z,27.37
2018-06-17T09:31:48.258Z,27.46
2018-06-17T09:34:17.748Z,27.70
2018-06-17T09:36:48.930Z,28.17
2018-06-17T09:39:17.340Z,28.70
2018-06-17T09:41:46.339Z,29.18
2018-06-17T09:44:22.914Z,29.90
2018-06-17T09:46:52.082Z,30.01
2018-06-17T09:49:20.514Z,30.00
2018-06-17T09:55:09.389Z,29.78
2018-06-17T09:57:39.504Z,29.78
2018-06-17T10:00:19.989Z,29.96
2018-06-17T10:03:04.168Z,30.01
2018-06-17T10:09:01.623Z,30.76
2018-06-17T10:11:37.397Z,31.34
2018-06-17T10:14:19.236Z,31.93
2018-06-17T10:17:00.523Z,32.34
2018-06-17T10:20:01.517Z,31.98
2018-06-17T10:22:30.184Z,31.34
2018-06-17T10:24:58.907Z,31.26
2018-06-17T10:27:29.770Z,30.45
2018-06-17T10:29:58.993Z,29.97
2018-06-17T10:32:29.895Z,29.71
2018-06-17T10:34:59.626Z,29.90
2018-06-17T10:37:28.752Z,29.41
2018-06-17T10:39:57.475Z,29.14
2018-06-17T10:42:26.758Z,28.91
2018-06-17T10:44:58.843Z,28.93
2018-06-17T10:47:30.868Z,29.21
2018-06-17T10:49:59.623Z,30.08
2018-06-17T10:52:28.634Z,30.93
2018-06-17T10:55:01.767Z,31.63
2018-06-17T10:57:33.995Z,32.11
2018-06-17T11:00:02.757Z,31.57
2018-06-17T11:02:31.704Z,31.54
2018-06-17T11:05:00.461Z,31.64
2018-06-17T11:07:29.703Z,31.05
2018-06-17T11:09:59.693Z,30.26
2018-06-17T11:12:28.972Z,29.96
2018-06-17T11:14:59.165Z,29.86
2018-06-17T11:17:29.846Z,30.47
2018-06-17T11:19:58.839Z,30.89
2018-06-17T11:22:30.812Z,31.53
2018-06-17T11:24:59.810Z,32.32
2018-06-17T11:27:28.971Z,32.23
2018-06-17T11:29:58.644Z,32.15
2018-06-17T11:32:29.266Z,32.50
2018-06-17T11:34:59.159Z,32.52
2018-06-17T11:37:29.404Z,32.53
2018-06-17T11:39:58.942Z,32.03
2018-06-17T11:42:28.958Z,32.23
2018-06-17T11:44:59.041Z,31.77
2018-06-17T11:47:30.286Z,31.74
2018-06-17T11:50:02.144Z,32.34
2018-06-17T11:52:31.179Z,31.98
2018-06-17T11:54:59.957Z,31.85
2018-06-17T11:57:28.934Z,31.67
2018-06-17T12:00:01.002Z,31.62
2018-06-17T12:02:30.037Z,31.99
2018-06-17T12:05:00.769Z,31.92
2018-06-17T12:07:29.888Z,31.78
2018-06-17T12:10:00.365Z,31.75
2018-06-17T12:12:30.635Z,31.93
2018-06-17T12:15:01.037Z,32.27
2018-06-17T12:17:31.023Z,31.94
2018-06-17T12:20:01.176Z,31.77
2018-06-17T12:22:31.176Z,31.63
2018-06-17T12:25:01.418Z,31.13
2018-06-17T12:27:30.505Z,31.27
2018-06-17T12:30:00.780Z,31.58
2018-06-17T12:32:30.798Z,31.68
2018-06-17T12:35:01.065Z,31.92
2018-06-17T12:37:31.052Z,31.93
2018-06-17T12:40:00.845Z,31.50
2018-06-17T12:42:30.821Z,30.77
2018-06-17T12:45:01.386Z,30.23
2018-06-17T12:47:30.542Z,29.99
2018-06-17T12:50:00.367Z,29.99
2018-06-17T12:52:30.826Z,29.87
2018-06-17T12:55:00.714Z,29.64
2018-06-17T12:57:30.849Z,29.28
2018-06-17T13:00:01.496Z,29.10
2018-06-17T13:02:30.622Z,29.33
2018-06-17T13:05:01.338Z,29.61
2018-06-17T13:07:31.055Z,29.63
2018-06-17T13:10:00.626Z,29.31
2018-06-17T13:12:31.442Z,29.66
2018-06-17T13:15:00.435Z,29.50
2018-06-17T13:17:30.524Z,29.83
2018-06-17T13:20:00.495Z,29.82
2018-06-17T13:22:30.876Z,29.95
2018-06-17T13:25:00.822Z,29.70
2018-06-17T13:27:30.773Z,30.03
2018-06-17T13:30:00.689Z,30.18
2018-06-17T13:32:30.373Z,30.32
2018-06-17T13:35:01.065Z,29.82
2018-06-17T13:37:30.709Z,29.55
2018-06-17T13:40:01.005Z,29.30
2018-06-17T13:42:30.539Z,29.22
2018-06-17T13:45:00.844Z,29.18
2018-06-17T13:47:30.954Z,29.32
2018-06-17T13:50:00.343Z,29.32
2018-06-17T13:52:30.482Z,29.56
2018-06-17T13:55:02.197Z,29.73
2018-06-17T13:57:31.274Z,29.95
2018-06-17T14:00:00.075Z,30.11
2018-06-17T14:02:31.946Z,29.40
2018-06-17T14:05:00.708Z,29.32
2018-06-17T14:07:30.250Z,29.94
2018-06-17T14:10:00.963Z,30.35
2018-06-17T14:12:30.018Z,30.71
2018-06-17T14:15:00.611Z,29.91
2018-06-17T14:17:30.614Z,29.88
2018-06-17T14:20:00.226Z,29.96
2018-06-17T14:22:30.265Z,29.90
2018-06-17T14:24:59.474Z,29.17
2018-06-17T14:27:30.002Z,28.78
2018-06-17T14:30:00.095Z,28.74
2018-06-17T14:32:30.039Z,29.23
2018-06-17T14:35:00.654Z,29.58
2018-06-17T14:37:30.477Z,29.69
2018-06-17T14:40:00.450Z,29.31
2018-06-17T14:42:37.435Z,29.45
2018-06-17T14:45:11.828Z,29.55
2018-06-17T14:47:49.491Z,29.26
2018-06-17T14:50:27.618Z,29.55
2018-06-17T14:53:01.811Z,29.16
2018-06-17T14:55:30.494Z,28.92
2018-06-17T14:57:59.940Z,28.84
2018-06-17T15:00:29.902Z,28.74
2018-06-17T15:03:00.171Z,29.19
2018-06-17T15:05:30.505Z,29.72
2018-06-17T15:08:00.273Z,29.50
2018-06-17T15:10:29.923Z,29.41
2018-06-17T15:13:00.157Z,29.37
2018-06-17T15:15:30.034Z,29.38
2018-06-17T15:18:00.245Z,29.41
2018-06-17T15:20:30.150Z,29.46
2018-06-17T15:22:58.989Z,29.37
2018-06-17T15:25:28.058Z,29.69
2018-06-17T15:28:03.014Z,29.70
2018-06-17T15:30:44.068Z,29.73
2018-06-17T15:33:23.825Z,29.84
2018-06-17T15:36:01.773Z,29.84
2018-06-17T15:38:43.625Z,29.62
2018-06-17T15:41:25.631Z,29.61
2018-06-17T15:44:03.000Z,29.30
2018-06-17T15:49:12.634Z,28.84
2018-06-17T15:51:41.744Z,29.05
2018-06-17T15:54:10.766Z,28.93
2018-06-17T15:56:39.827Z,28.81
2018-06-17T15:59:08.876Z,28.80
2018-06-17T16:01:38.464Z,28.59
2018-06-17T16:04:07.631Z,28.14
2018-06-17T16:06:36.845Z,28.32
2018-06-17T16:09:08.932Z,28.55
2018-06-17T16:11:43.756Z,28.61
2018-06-17T16:14:18.012Z,28.64
2018-06-17T16:16:52.510Z,28.65
2018-06-17T16:19:27.099Z,28.85
2018-06-17T16:21:57.222Z,28.83
2018-06-17T16:24:25.980Z,28.61
2018-06-17T16:26:55.288Z,28.23
2018-06-17T16:29:24.213Z,28.05
2018-06-17T16:31:54.095Z,27.71
2018-06-17T16:34:22.703Z,27.55
2018-06-17T16:36:51.687Z,27.49
2018-06-17T16:39:20.438Z,27.60
2018-06-17T16:41:50.398Z,27.60
2018-06-17T16:44:19.114Z,27.59
2018-06-17T16:46:47.849Z,27.38
2018-06-17T16:49:16.537Z,27.39
2018-06-17T16:51:50.497Z,27.40
2018-06-17T16:54:24.326Z,27.12
2018-06-17T16:56:57.970Z,27.14
2018-06-17T16:59:31.822Z,26.80
2018-06-17T17:02:01.136Z,26.49
2018-06-17T17:04:30.285Z,26.67
2018-06-17T17:06:58.794Z,26.54
2018-06-17T17:09:27.361Z,26.51
2018-06-17T17:11:57.030Z,26.58
2018-06-17T17:14:28.464Z,26.63
2018-06-17T17:17:00.418Z,26.62
2018-06-17T17:19:32.434Z,26.67
2018-06-17T17:22:04.407Z,26.70
2018-06-17T17:24:32.907Z,26.75
2018-06-17T17:27:01.332Z,26.67
2018-06-17T17:29:29.887Z,26.44
2018-06-17T17:32:08.848Z,26.58
2018-06-17T17:34:56.311Z,26.65
2018-06-17T17:37:34.212Z,26.54
2018-06-17T17:40:14.365Z,26.54
2018-06-17T17:42:56.885Z,26.50
2018-06-17T17:45:28.016Z,26.65
2018-06-17T17:48:01.131Z,26.77
2018-06-17T17:50:56.071Z,26.76
2018-06-17T17:53:31.596Z,26.62
2018-06-17T17:56:05.813Z,26.63
2018-06-17T17:58:41.486Z,26.61
2018-06-17T18:01:10.003Z,26.57
2018-06-17T18:03:38.548Z,26.50
2018-06-17T18:06:18.807Z,26.55
2018-06-17T18:08:48.826Z,26.54
2018-06-17T18:11:28.291Z,26.48
2018-06-17T18:13:59.267Z,26.58
2018-06-17T18:16:39.508Z,26.63
2018-06-17T18:19:11.778Z,26.62
2018-06-17T18:21:49.472Z,26.61
2018-06-17T18:24:20.416Z,26.60
2018-06-17T18:27:01.865Z,26.55
2018-06-17T18:32:23.579Z,26.47
2018-06-17T18:35:08.555Z,26.30
2018-06-17T18:37:49.154Z,26.17
2018-06-17T18:40:20.036Z,26.17
2018-06-17T18:43:00.959Z,26.17
2018-06-17T18:45:29.365Z,26.08
2018-06-17T18:47:57.816Z,26.07
2018-06-17T18:50:28.518Z,26.02
2018-06-17T18:52:59.548Z,25.92
2018-06-17T18:55:28.112Z,25.81
2018-06-17T18:57:56.551Z,25.76
2018-06-17T19:00:25.352Z,25.69
2018-06-17T19:02:53.869Z,25.46
2018-06-17T19:05:22.337Z,25.28
2018-06-17T19:07:52.163Z,25.30
2018-06-17T19:10:26.362Z,25.30
2018-06-17T19:13:01.268Z,25.30
2018-06-17T19:15:35.416Z,25.16
2018-06-17T19:18:06.141Z,24.99
2018-06-17T19:20:34.977Z,24.99
2018-06-17T19:23:05.433Z,24.85
2018-06-17T19:25:35.025Z,24.66
2018-06-17T19:28:03.474Z,24.61
2018-06-17T19:30:32.051Z,24.56
2018-06-17T19:33:00.776Z,24.56
2018-06-17T19:35:29.351Z,24.52
2018-06-17T19:37:57.893Z,24.56
2018-06-17T19:40:26.833Z,24.51
2018-06-17T19:42:55.992Z,24.47
2018-06-17T19:45:24.487Z,24.37
2018-06-17T19:47:53.115Z,24.23
2018-06-17T19:50:26.749Z,24.27
2018-06-17T19:53:00.848Z,24.31
2018-06-17T19:55:34.642Z,24.24
2018-06-17T19:58:08.165Z,24.20
2018-06-17T20:00:38.847Z,24.20
2018-06-17T20:03:10.139Z,24.17
2018-06-17T20:05:38.485Z,24.06
2018-06-17T20:08:06.836Z,24.03
2018-06-17T20:10:35.508Z,23.99
2018-06-17T20:13:04.273Z,24.03
2018-06-17T20:15:32.910Z,24.00
2018-06-17T20:18:01.409Z,23.97
2018-06-17T20:20:29.862Z,23.95
2018-06-17T20:22:58.497Z,23.84
2018-06-17T20:25:26.851Z,23.89
2018-06-17T20:27:55.167Z,23.96
2018-06-17T20:30:23.487Z,24.03
2018-06-17T20:32:57.653Z,24.06
2018-06-17T20:35:31.330Z,24.01
2018-06-17T20:38:04.938Z,23.99
2018-06-17T20:40:38.521Z,23.88
2018-06-17T20:43:12.105Z,23.73
2018-06-17T20:45:40.764Z,23.75
2018-06-17T20:48:09.118Z,23.55
2018-06-17T20:50:37.398Z,23.52
2018-06-17T20:53:05.842Z,23.46
2018-06-17T20:55:34.194Z,23.43
2018-06-17T20:58:02.600Z,23.37
2018-06-17T21:00:31.674Z,23.27
2018-06-17T21:02:59.999Z,23.12
2018-06-17T21:05:28.338Z,23.05
2018-06-17T21:07:56.729Z,23.06
2018-06-17T21:10:25.389Z,23.09
2018-06-17T21:12:53.741Z,23.10
2018-06-17T21:15:22.247Z,23.17
2018-06-17T21:17:51.453Z,23.17
2018-06-17T21:20:25.300Z,23.12
2018-06-17T21:22:59.017Z,23.10
2018-06-17T21:25:32.622Z,22.99
2018-06-17T21:28:02.274Z,23.01
2018-06-17T21:30:31.641Z,23.05
2018-06-17T21:33:00.026Z,22.99
2018-06-17T21:35:28.329Z,23.01
2018-06-17T21:37:57.633Z,22.97
2018-06-17T21:40:27.709Z,22.94
2018-06-17T21:42:58.206Z,22.94
2018-06-17T21:45:28.274Z,22.89
2018-06-17T21:47:57.587Z,22.81
2018-06-17T21:50:26.433Z,22.70
2018-06-17T21:52:57.663Z,22.65
2018-06-17T21:55:29.283Z,22.69
2018-06-17T21:57:57.607Z,22.76
2018-06-17T22:00:26.131Z,22.75
2018-06-17T22:02:56.335Z,22.77
2018-06-17T22:05:27.123Z,22.73
2018-06-17T22:08:05.007Z,22.72
2018-06-17T22:14:57.438Z,22.75
2018-06-17T22:17:35.205Z,22.56
2018-06-17T22:20:05.312Z,22.32
2018-06-17T22:22:35.189Z,22.38
2018-06-17T22:25:05.747Z,22.40
2018-06-17T22:27:36.249Z,22.35
2018-06-17T22:30:04.676Z,22.37
2018-06-17T22:32:33.047Z,22.39
2018-06-17T22:35:01.373Z,22.44
2018-06-17T22:37:29.740Z,22.37
2018-06-17T22:39:58.259Z,22.31
2018-06-17T22:42:27.843Z,22.28
2018-06-17T22:44:57.182Z,22.16
2018-06-17T22:47:34.812Z,21.97
2018-06-17T22:50:03.278Z,21.96
2018-06-17T22:52:36.786Z,21.87
2018-06-17T22:55:07.869Z,21.80
2018-06-17T22:57:44.193Z,21.76
2018-06-17T23:00:18.381Z,21.77
2018-06-17T23:02:54.353Z,21.76
2018-06-17T23:05:28.363Z,21.64
2018-06-17T23:08:02.177Z,21.62
2018-06-17T23:10:30.514Z,21.70
2018-06-17T23:12:58.874Z,21.72
2018-06-17T23:15:27.198Z,21.72
2018-06-17T23:17:56.730Z,21.76
2018-06-17T23:20:26.590Z,21.83
2018-06-17T23:22:56.992Z,21.92
2018-06-17T23:25:27.496Z,21.89
2018-06-17T23:27:57.727Z,21.98
2018-06-17T23:30:26.092Z,21.94
2018-06-17T23:32:57.334Z,22.02
2018-06-17T23:35:27.410Z,22.03
2018-06-17T23:37:57.055Z,21.88
2018-06-17T23:40:27.269Z,21.93
2018-06-17T23:42:56.876Z,22.02
2018-06-17T23:45:25.969Z,21.90
2018-06-17T23:48:01.029Z,21.77
2018-06-17T23:52:38.665Z,22.00
2018-06-17T23:56:10.842Z,22.12
2018-06-17T23:58:39.828Z,22.17
